Time;durP1;ratioP1;P1;durP2;ratioP2;P2;SDS_P1;SDS_P2;PMS_P1;PMS_P2;Temp;Humidity;BMP_temperature;BMP_pressure;BME280_temperature;BME280_humidity;BME280_pressure;Samples;Min_cycle;Max_cycle;Signal;HPM_P1;HPM_P2
2022/03/06 00:00:54;;;;;;;21.13;13.57;;;;;;;;;;5095505;28;20293;-68
2022/03/06 00:03:21;;;;;;;21.92;14.50;;;;;;;;;;5095372;28;20281;-67
2022/03/06 00:05:48;;;;;;;25.42;15.05;;;;;;;;;;5095992;28;20233;-68
2022/03/06 00:08:15;;;;;;;27.58;14.43;;;;;;;;;;5095232;28;20201;-67
2022/03/06 00:10:43;;;;;;;22.02;16.15;;;;;;;;;;5095074;28;20237;-68
2022/03/06 00:13:10;;;;;;;20.33;13.45;;;;;;;;;;5095641;28;20193;-67
2022/03/06 00:15:39;;;;;;;22.60;13.88;;;;;;;;;;5095197;28;20193;-67
2022/03/06 00:18:06;;;;;;;20.20;13.77;;;;;;;;;;5095102;28;20229;-68
2022/03/06 00:20:33;;;;;;;24.50;14.93;;;;;;;;;;5095094;28;20194;-67
2022/03/06 00:23:01;;;;;;;18.48;14.57;;;;;;;;;;5095300;28;20292;-68
2022/03/06 00:25:28;;;;;;;20.02;13.38;;;;;;;;;;5095736;28;20205;-67
2022/03/06 00:27:55;;;;;;;18.25;14.00;;;;;;;;;;5095276;28;20277;-68
2022/03/06 00:30:22;;;;;;;18.83;13.40;;;;;;;;;;5094846;28;20312;-68
2022/03/06 00:32:51;;;;;;;23.52;14.48;;;;;;;;;;5094775;28;20189;-68
2022/03/06 00:35:18;;;;;;;21.15;15.02;;;;;;;;;;5094822;28;20197;-67
2022/03/06 00:37:46;;;;;;;19.73;14.45;;;;;;;;;;5095476;28;20193;-67
2022/03/06 00:40:13;;;;;;;19.13;12.27;;;;;;;;;;5095212;28;20224;-68
2022/03/06 00:42:41;;;;;;;20.40;15.23;;;;;;;;;;5094914;28;20189;-68
2022/03/06 00:45:08;;;;;;;22.15;14.07;;;;;;;;;;5094578;28;20198;-67
2022/03/06 00:47:35;;;;;;;23.10;14.30;;;;;;;;;;5095374;28;20200;-67
2022/03/06 00:50:04;;;;;;;23.63;14.57;;;;;;;;;;5094558;28;20190;-67
2022/03/06 00:52:32;;;;;;;23.70;14.73;;;;;;;;;;5094431;28;20269;-67
2022/03/06 00:54:59;;;;;;;23.45;15.27;;;;;;;;;;5094778;28;20225;-68
2022/03/06 00:57:26;;;;;;;21.77;14.93;;;;;;;;;;5094598;28;20200;-67
2022/03/06 00:59:53;;;;;;;20.92;14.20;;;;;;;;;;5094687;28;20246;-67
2022/03/06 01:02:20;;;;;;;23.83;14.38;;;;;;;;;;5094251;28;20241;-68
2022/03/06 01:04:48;;;;;;;23.33;15.27;;;;;;;;;;5094259;28;20232;-68
2022/03/06 01:07:16;;;;;;;19.00;13.93;;;;;;;;;;5094055;28;20225;-67
2022/03/06 01:09:44;;;;;;;20.10;14.25;;;;;;;;;;5094212;28;20284;-67
2022/03/06 01:12:13;;;;;;;23.23;14.95;;;;;;;;;;5093907;28;20268;-67
2022/03/06 01:14:40;;;;;;;22.08;14.88;;;;;;;;;;5094137;28;20654;-67
2022/03/06 01:17:07;;;;;;;24.90;16.10;;;;;;;;;;5094388;28;20195;-67
2022/03/06 01:19:34;;;;;;;25.02;16.95;;;;;;;;;;5094222;28;20676;-67
2022/03/06 01:22:01;;;;;;;22.75;14.95;;;;;;;;;;5093949;28;20643;-67
2022/03/06 01:24:30;;;;;;;21.00;14.20;;;;;;;;;;5094186;28;20282;-66
2022/03/06 01:26:57;;;;;;;24.48;13.73;;;;;;;;;;5094238;28;20282;-68
2022/03/06 01:29:24;;;;;;;21.65;15.30;;;;;;;;;;5093799;28;20746;-67
2022/03/06 01:31:52;;;;;;;24.13;15.63;;;;;;;;;;5094232;28;20213;-67
2022/03/06 01:34:19;;;;;;;24.08;15.52;;;;;;;;;;5093701;28;20225;-67
2022/03/06 01:36:46;;;;;;;22.92;14.05;;;;;;;;;;5094012;28;20240;-67
2022/03/06 01:39:14;;;;;;;20.48;13.90;;;;;;;;;;5093617;28;20235;-67
2022/03/06 01:41:42;;;;;;;20.02;14.82;;;;;;;;;;5094071;28;20284;-67
2022/03/06 01:44:13;;;;;;;22.23;13.98;;;;;;;;;;5093645;28;20243;-67
2022/03/06 01:46:40;;;;;;;21.25;14.98;;;;;;;;;;5093993;28;20702;-68
2022/03/06 01:49:07;;;;;;;21.50;14.10;;;;;;;;;;5093519;28;20197;-68
2022/03/06 01:51:34;;;;;;;18.88;13.60;;;;;;;;;;5093819;28;20229;-67
2022/03/06 01:54:02;;;;;;;21.75;14.82;;;;;;;;;;5093992;28;20289;-68
2022/03/06 01:56:29;;;;;;;23.08;14.45;;;;;;;;;;5094250;28;20197;-68
2022/03/06 01:58:59;;;;;;;21.38;13.35;;;;;;;;;;5093712;28;20224;-68
2022/03/06 02:01:26;;;;;;;16.15;13.00;;;;;;;;;;5094230;28;20280;-67
2022/03/06 02:03:53;;;;;;;18.67;13.32;;;;;;;;;;5094141;28;20605;-67
2022/03/06 02:06:21;;;;;;;24.35;15.77;;;;;;;;;;5093437;28;20194;-67
2022/03/06 02:08:48;;;;;;;21.15;13.65;;;;;;;;;;5093629;28;20199;-66
2022/03/06 02:11:16;;;;;;;21.25;13.77;;;;;;;;;;5092861;28;20229;-68
2022/03/06 02:13:43;;;;;;;19.92;13.65;;;;;;;;;;5093594;28;20233;-68
2022/03/06 02:16:12;;;;;;;20.55;14.70;;;;;;;;;;5093703;28;20554;-68
2022/03/06 02:18:39;;;;;;;21.92;13.60;;;;;;;;;;5095736;28;20197;-68
2022/03/06 02:21:11;;;;;;;17.83;13.20;;;;;;;;;;5098006;28;20200;-67
2022/03/06 02:23:39;;;;;;;19.08;13.30;;;;;;;;;;5097692;28;20232;-67
2022/03/06 02:26:06;;;;;;;18.27;12.07;;;;;;;;;;5098000;28;20706;-68
2022/03/06 02:28:34;;;;;;;24.17;15.43;;;;;;;;;;5097572;28;20221;-67
2022/03/06 02:31:02;;;;;;;20.52;14.80;;;;;;;;;;5097914;28;20274;-67
2022/03/06 02:33:29;;;;;;;21.70;13.98;;;;;;;;;;5097041;28;20236;-67
2022/03/06 02:35:56;;;;;;;23.75;14.95;;;;;;;;;;5097509;28;20198;-66
2022/03/06 02:38:25;;;;;;;21.02;14.35;;;;;;;;;;5097368;28;20617;-66
2022/03/06 02:40:53;;;;;;;23.50;14.88;;;;;;;;;;5097009;28;20190;-67
2022/03/06 02:43:21;;;;;;;23.13;14.65;;;;;;;;;;5096944;28;20285;-66
2022/03/06 02:45:48;;;;;;;20.77;15.10;;;;;;;;;;5097007;28;20204;-67
2022/03/06 02:48:17;;;;;;;23.98;14.70;;;;;;;;;;5096927;28;20189;-67
2022/03/06 02:50:44;;;;;;;22.02;14.25;;;;;;;;;;5097062;28;20595;-67
2022/03/06 02:53:12;;;;;;;24.83;14.40;;;;;;;;;;5096831;28;20204;-66
2022/03/06 02:55:42;;;;;;;23.92;16.10;;;;;;;;;;5096742;28;20232;-68
2022/03/06 02:58:09;;;;;;;22.02;15.70;;;;;;;;;;5097015;28;20190;-67
2022/03/06 03:00:37;;;;;;;18.80;12.95;;;;;;;;;;5096929;28;20251;-67
2022/03/06 03:03:04;;;;;;;18.88;14.77;;;;;;;;;;5096535;28;20201;-66
2022/03/06 03:05:32;;;;;;;18.65;13.95;;;;;;;;;;5096834;28;20197;-67
2022/03/06 03:07:59;;;;;;;19.17;14.63;;;;;;;;;;5096595;28;20688;-67
2022/03/06 03:10:27;;;;;;;21.08;13.95;;;;;;;;;;5096300;28;20189;-66
2022/03/06 03:12:56;;;;;;;22.20;14.55;;;;;;;;;;5095790;28;20271;-66
2022/03/06 03:15:24;;;;;;;21.98;14.98;;;;;;;;;;5095643;28;20240;-67
2022/03/06 03:17:51;;;;;;;22.17;14.60;;;;;;;;;;5095654;28;20246;-67
2022/03/06 03:20:18;;;;;;;21.23;15.23;;;;;;;;;;5095092;28;20197;-67
2022/03/06 03:22:46;;;;;;;23.90;14.40;;;;;;;;;;5095425;28;20199;-67
2022/03/06 03:25:14;;;;;;;27.77;17.70;;;;;;;;;;5094956;28;20203;-67
2022/03/06 03:27:41;;;;;;;19.95;14.65;;;;;;;;;;5095050;28;20254;-67
2022/03/06 03:30:11;;;;;;;27.13;16.48;;;;;;;;;;5094918;28;20648;-65
2022/03/06 03:32:38;;;;;;;22.27;14.55;;;;;;;;;;5095460;28;20216;-66
2022/03/06 03:35:07;;;;;;;23.23;16.40;;;;;;;;;;5095288;28;20200;-67
2022/03/06 03:37:34;;;;;;;24.65;16.50;;;;;;;;;;5095150;28;20204;-67
2022/03/06 03:40:01;;;;;;;26.15;15.60;;;;;;;;;;5094936;28;20666;-67
2022/03/06 03:42:29;;;;;;;28.40;16.65;;;;;;;;;;5094784;28;20197;-66
2022/03/06 03:44:56;;;;;;;27.13;16.15;;;;;;;;;;5095194;28;20196;-67
2022/03/06 03:47:25;;;;;;;23.08;16.40;;;;;;;;;;5095246;28;20200;-67
2022/03/06 03:49:52;;;;;;;24.27;16.48;;;;;;;;;;5094599;28;20193;-67
2022/03/06 03:52:19;;;;;;;21.80;16.08;;;;;;;;;;5094575;28;20214;-67
2022/03/06 03:54:46;;;;;;;23.38;15.80;;;;;;;;;;5094831;28;20243;-66
2022/03/06 03:57:15;;;;;;;22.85;17.02;;;;;;;;;;5094598;28;20194;-67
2022/03/06 03:59:42;;;;;;;22.55;16.08;;;;;;;;;;5094734;28;20204;-66
2022/03/06 04:02:09;;;;;;;21.75;15.45;;;;;;;;;;5094484;28;20685;-66
2022/03/06 04:04:38;;;;;;;30.33;17.42;;;;;;;;;;5094668;28;20283;-67
2022/03/06 04:07:05;;;;;;;21.33;16.35;;;;;;;;;;5094423;28;20285;-67
2022/03/06 04:09:33;;;;;;;25.50;15.43;;;;;;;;;;5094256;28;20287;-67
2022/03/06 04:12:00;;;;;;;29.17;17.40;;;;;;;;;;5056132;28;1097839;-66
2022/03/06 04:14:27;;;;;;;26.85;17.95;;;;;;;;;;5095257;28;20198;-66
2022/03/06 04:16:54;;;;;;;29.45;17.88;;;;;;;;;;5095244;28;20237;-67
2022/03/06 04:19:22;;;;;;;25.23;16.48;;;;;;;;;;5095171;28;20229;-67
2022/03/06 04:21:50;;;;;;;24.48;17.55;;;;;;;;;;5095046;28;20208;-67
2022/03/06 04:24:17;;;;;;;24.35;17.77;;;;;;;;;;5095430;28;20194;-67
2022/03/06 04:26:45;;;;;;;22.70;16.05;;;;;;;;;;5094945;28;20761;-67
2022/03/06 04:29:12;;;;;;;26.20;18.00;;;;;;;;;;5095271;28;20738;-67
2022/03/06 04:31:39;;;;;;;25.27;17.33;;;;;;;;;;5095148;28;20209;-68
2022/03/06 04:34:06;;;;;;;27.83;17.08;;;;;;;;;;5095475;28;20286;-67
2022/03/06 04:36:33;;;;;;;23.42;17.90;;;;;;;;;;5094737;28;20201;-67
2022/03/06 04:39:02;;;;;;;22.77;16.55;;;;;;;;;;5095951;28;20197;-68
2022/03/06 04:41:29;;;;;;;21.65;16.17;;;;;;;;;;5093785;28;20220;-68
2022/03/06 04:43:56;;;;;;;25.75;17.35;;;;;;;;;;5094699;28;20285;-68
2022/03/06 04:46:24;;;;;;;25.02;17.63;;;;;;;;;;5094585;28;20190;-67
2022/03/06 04:48:51;;;;;;;21.98;17.02;;;;;;;;;;5095253;28;20608;-67
2022/03/06 04:51:18;;;;;;;24.15;17.77;;;;;;;;;;5094820;28;20223;-67
2022/03/06 04:53:46;;;;;;;25.67;18.63;;;;;;;;;;5094755;28;20267;-67
2022/03/06 04:56:14;;;;;;;24.10;15.77;;;;;;;;;;5094683;28;20201;-67
2022/03/06 04:58:42;;;;;;;22.70;16.33;;;;;;;;;;5094730;28;20288;-67
2022/03/06 05:01:09;;;;;;;24.73;16.15;;;;;;;;;;5094277;28;20219;-67
2022/03/06 05:03:36;;;;;;;22.80;16.95;;;;;;;;;;5094371;28;20239;-68
2022/03/06 05:06:03;;;;;;;25.95;17.38;;;;;;;;;;5094227;28;20223;-68
2022/03/06 05:08:31;;;;;;;28.83;19.35;;;;;;;;;;5094597;28;20284;-67
2022/03/06 05:10:58;;;;;;;27.88;17.95;;;;;;;;;;5094337;28;20625;-67
2022/03/06 05:13:27;;;;;;;24.40;18.30;;;;;;;;;;5094093;28;20262;-67
2022/03/06 05:15:54;;;;;;;25.08;17.67;;;;;;;;;;5094354;28;20248;-67
2022/03/06 05:18:21;;;;;;;23.02;15.35;;;;;;;;;;5094382;28;20240;-67
2022/03/06 05:20:48;;;;;;;29.85;17.95;;;;;;;;;;5094274;28;20276;-67
2022/03/06 05:23:16;;;;;;;23.02;17.20;;;;;;;;;;5094242;28;20228;-67
2022/03/06 05:25:43;;;;;;;25.23;16.80;;;;;;;;;;5094205;28;20206;-67
2022/03/06 05:28:10;;;;;;;27.52;18.35;;;;;;;;;;5093971;28;20232;-67
2022/03/06 05:30:39;;;;;;;26.85;18.20;;;;;;;;;;5094078;28;20222;-67
2022/03/06 05:33:06;;;;;;;22.88;16.95;;;;;;;;;;5093733;28;20305;-68
2022/03/06 05:35:33;;;;;;;24.42;18.77;;;;;;;;;;5094107;28;20559;-66
2022/03/06 05:38:01;;;;;;;25.85;17.88;;;;;;;;;;5094091;28;20239;-68
2022/03/06 05:40:28;;;;;;;25.95;18.27;;;;;;;;;;5094471;28;20284;-67
2022/03/06 05:42:55;;;;;;;31.33;18.70;;;;;;;;;;5093604;28;20201;-67
2022/03/06 05:45:22;;;;;;;25.40;17.73;;;;;;;;;;5094427;28;20276;-67
2022/03/06 05:47:51;;;;;;;24.95;17.98;;;;;;;;;;5094134;28;20287;-67
2022/03/06 05:50:18;;;;;;;26.25;17.77;;;;;;;;;;5092557;28;20281;-68
2022/03/06 05:52:48;;;;;;;28.65;17.63;;;;;;;;;;5092940;28;20282;-67
2022/03/06 05:55:16;;;;;;;24.88;17.83;;;;;;;;;;5093417;28;20260;-67
2022/03/06 05:57:44;;;;;;;21.30;15.25;;;;;;;;;;5093150;28;20190;-66
2022/03/06 06:00:12;;;;;;;25.13;16.15;;;;;;;;;;5092984;28;20643;-67
2022/03/06 06:02:40;;;;;;;29.50;18.10;;;;;;;;;;5092841;28;20201;-68
2022/03/06 06:05:10;;;;;;;25.77;17.73;;;;;;;;;;5093154;28;20276;-67
2022/03/06 06:07:37;;;;;;;31.23;17.42;;;;;;;;;;5092780;28;20228;-67
2022/03/06 06:10:06;;;;;;;30.75;17.70;;;;;;;;;;5094174;28;20193;-67
2022/03/06 06:12:33;;;;;;;25.13;17.77;;;;;;;;;;5092639;28;20229;-67
2022/03/06 06:15:00;;;;;;;25.00;17.00;;;;;;;;;;5093527;28;20200;-67
2022/03/06 06:17:27;;;;;;;25.42;16.48;;;;;;;;;;5093692;28;20196;-67
2022/03/06 06:19:55;;;;;;;26.80;18.30;;;;;;;;;;5093443;28;20193;-67
2022/03/06 06:22:23;;;;;;;23.88;16.88;;;;;;;;;;5093169;28;20650;-67
2022/03/06 06:24:50;;;;;;;23.52;17.23;;;;;;;;;;5093281;28;20198;-67
2022/03/06 06:27:18;;;;;;;22.25;16.33;;;;;;;;;;5093483;28;20280;-68
2022/03/06 06:29:45;;;;;;;27.05;18.33;;;;;;;;;;5093637;28;20193;-66
2022/03/06 06:32:13;;;;;;;25.75;17.10;;;;;;;;;;5092574;28;20204;-67
2022/03/06 06:34:40;;;;;;;27.90;16.88;;;;;;;;;;5093399;28;20204;-67
2022/03/06 06:37:08;;;;;;;25.30;16.30;;;;;;;;;;5093332;28;20280;-67
2022/03/06 06:39:36;;;;;;;25.05;16.40;;;;;;;;;;5092982;28;20198;-67
2022/03/06 06:42:05;;;;;;;20.35;15.20;;;;;;;;;;5093406;28;20288;-68
2022/03/06 06:44:32;;;;;;;23.25;16.58;;;;;;;;;;5093374;28;20559;-67
2022/03/06 06:46:59;;;;;;;25.88;17.40;;;;;;;;;;5093251;28;20204;-67
2022/03/06 06:49:26;;;;;;;24.00;15.80;;;;;;;;;;5092910;28;20685;-67
2022/03/06 06:51:54;;;;;;;23.50;16.45;;;;;;;;;;5092877;28;20193;-67
2022/03/06 06:54:21;;;;;;;26.92;16.92;;;;;;;;;;5092894;28;20335;-66
2022/03/06 06:56:50;;;;;;;23.83;17.15;;;;;;;;;;5093149;28;20236;-67
2022/03/06 06:59:17;;;;;;;20.85;16.40;;;;;;;;;;5092896;28;20251;-67
2022/03/06 07:01:44;;;;;;;19.30;15.80;;;;;;;;;;5093196;28;20285;-67
2022/03/06 07:04:11;;;;;;;27.25;16.98;;;;;;;;;;5094588;28;20229;-68
2022/03/06 07:06:47;;;;;;;21.52;15.20;;;;;;;;;;5096610;28;20241;-68
2022/03/06 07:09:15;;;;;;;22.85;17.10;;;;;;;;;;5096409;28;20224;-67
2022/03/06 07:11:42;;;;;;;25.35;16.42;;;;;;;;;;5096061;28;20217;-67
2022/03/06 07:14:11;;;;;;;24.50;17.50;;;;;;;;;;5095913;28;20217;-66
2022/03/06 07:16:38;;;;;;;23.70;16.42;;;;;;;;;;5096426;28;20197;-67
2022/03/06 07:19:05;;;;;;;22.50;16.02;;;;;;;;;;5099232;28;20261;-67
2022/03/06 07:21:32;;;;;;;22.17;15.30;;;;;;;;;;5097387;28;20193;-66
2022/03/06 07:23:59;;;;;;;26.52;15.20;;;;;;;;;;5096106;28;20207;-66
2022/03/06 07:26:27;;;;;;;22.40;16.73;;;;;;;;;;5096497;28;20201;-67
2022/03/06 07:28:54;;;;;;;22.77;16.17;;;;;;;;;;5096401;28;20284;-67
2022/03/06 07:31:22;;;;;;;20.42;15.73;;;;;;;;;;5095807;28;20751;-67
2022/03/06 07:33:50;;;;;;;28.23;16.75;;;;;;;;;;5095766;28;20658;-67
2022/03/06 07:36:17;;;;;;;25.77;17.52;;;;;;;;;;5096295;28;20233;-67
2022/03/06 07:38:45;;;;;;;22.95;16.10;;;;;;;;;;5095801;28;20669;-67
2022/03/06 07:41:12;;;;;;;22.50;14.93;;;;;;;;;;5096492;28;20193;-68
2022/03/06 07:43:39;;;;;;;22.83;16.95;;;;;;;;;;5096117;28;20201;-68
2022/03/06 07:46:07;;;;;;;25.63;16.55;;;;;;;;;;5095814;28;20257;-67
2022/03/06 07:48:35;;;;;;;23.05;16.58;;;;;;;;;;5095834;28;20276;-67
2022/03/06 07:51:02;;;;;;;20.85;15.52;;;;;;;;;;5095911;28;20284;-67
2022/03/06 07:53:30;;;;;;;21.02;15.70;;;;;;;;;;5095188;28;20300;-68
2022/03/06 07:55:57;;;;;;;27.27;16.92;;;;;;;;;;5095647;28;20208;-67
2022/03/06 07:58:24;;;;;;;26.88;17.45;;;;;;;;;;5095486;28;20202;-67
2022/03/06 08:00:51;;;;;;;23.48;16.90;;;;;;;;;;5096048;28;20244;-67
2022/03/06 08:03:19;;;;;;;21.55;15.10;;;;;;;;;;5095644;28;20200;-68
2022/03/06 08:05:47;;;;;;;20.33;15.40;;;;;;;;;;5095303;28;20237;-69
2022/03/06 08:08:14;;;;;;;18.55;14.73;;;;;;;;;;5095289;28;20197;-67
2022/03/06 08:10:42;;;;;;;18.65;14.35;;;;;;;;;;5095532;28;20229;-68
2022/03/06 08:13:09;;;;;;;24.05;15.90;;;;;;;;;;5095176;28;20237;-67
2022/03/06 08:15:37;;;;;;;21.45;15.60;;;;;;;;;;5094367;28;20619;-68
2022/03/06 08:18:04;;;;;;;19.90;14.45;;;;;;;;;;5095420;28;20197;-68
2022/03/06 08:20:31;;;;;;;21.75;15.23;;;;;;;;;;5095183;28;20287;-67
2022/03/06 08:23:01;;;;;;;19.88;13.90;;;;;;;;;;5095063;28;20669;-68
2022/03/06 08:25:28;;;;;;;26.30;14.75;;;;;;;;;;5095293;28;20201;-69
2022/03/06 08:27:55;;;;;;;27.70;16.73;;;;;;;;;;5095249;28;20189;-68
2022/03/06 08:30:23;;;;;;;20.40;14.90;;;;;;;;;;5094797;28;20280;-69
2022/03/06 08:32:50;;;;;;;19.20;14.60;;;;;;;;;;5094746;28;20290;-68
2022/03/06 08:35:17;;;;;;;26.83;14.82;;;;;;;;;;5094678;28;20238;-67
2022/03/06 08:37:45;;;;;;;22.35;16.00;;;;;;;;;;5095069;28;20229;-67
2022/03/06 08:40:14;;;;;;;27.15;14.27;;;;;;;;;;5094571;28;20673;-67
2022/03/06 08:42:41;;;;;;;20.85;13.57;;;;;;;;;;5095194;28;20253;-68
2022/03/06 08:45:08;;;;;;;19.45;13.40;;;;;;;;;;5094599;28;20204;-67
2022/03/06 08:47:35;;;;;;;19.67;13.38;;;;;;;;;;5095155;28;20197;-68
2022/03/06 08:50:03;;;;;;;17.48;12.50;;;;;;;;;;5094874;28;20638;-68
2022/03/06 08:52:30;;;;;;;17.30;13.35;;;;;;;;;;5094879;28;20193;-68
2022/03/06 08:54:58;;;;;;;17.73;12.40;;;;;;;;;;5094273;28;20705;-68
2022/03/06 08:57:27;;;;;;;18.98;12.98;;;;;;;;;;5095104;28;20193;-68
2022/03/06 08:59:54;;;;;;;18.45;12.90;;;;;;;;;;5094586;28;20193;-67
2022/03/06 09:02:21;;;;;;;18.42;13.30;;;;;;;;;;5094782;28;20193;-68
2022/03/06 09:04:49;;;;;;;12.70;10.32;;;;;;;;;;5094064;28;20201;-68
2022/03/06 09:07:16;;;;;;;20.70;13.68;;;;;;;;;;5094498;28;20280;-67
2022/03/06 09:09:43;;;;;;;14.02;11.95;;;;;;;;;;5095232;28;20193;-68
2022/03/06 09:12:11;;;;;;;16.00;13.38;;;;;;;;;;5095160;28;20246;-69
2022/03/06 09:14:39;;;;;;;20.75;14.00;;;;;;;;;;5093103;28;20312;-68
2022/03/06 09:17:08;;;;;;;20.70;13.18;;;;;;;;;;5093508;28;20196;-67
2022/03/06 09:19:36;;;;;;;21.02;14.00;;;;;;;;;;5093972;28;20190;-68
2022/03/06 09:22:03;;;;;;;23.35;13.25;;;;;;;;;;5093505;28;20195;-68
2022/03/06 09:24:31;;;;;;;13.68;12.23;;;;;;;;;;5094065;28;20193;-68
2022/03/06 09:26:58;;;;;;;16.25;12.48;;;;;;;;;;5094321;28;20198;-67
2022/03/06 09:29:26;;;;;;;19.88;13.45;;;;;;;;;;5094085;28;20194;-67
2022/03/06 09:31:54;;;;;;;16.08;12.35;;;;;;;;;;5094008;28;20202;-67
2022/03/06 09:34:22;;;;;;;19.45;11.98;;;;;;;;;;5094293;28;20312;-67
2022/03/06 09:36:49;;;;;;;18.10;13.07;;;;;;;;;;5094182;28;20281;-67
2022/03/06 09:39:16;;;;;;;16.15;12.02;;;;;;;;;;5093371;28;20673;-67
2022/03/06 09:41:44;;;;;;;20.95;12.77;;;;;;;;;;5093588;28;20194;-67
2022/03/06 09:44:12;;;;;;;20.98;14.48;;;;;;;;;;5093396;28;20193;-68
2022/03/06 09:46:40;;;;;;;16.02;12.27;;;;;;;;;;5093559;28;20288;-67
2022/03/06 09:49:09;;;;;;;18.63;13.05;;;;;;;;;;5093950;28;20280;-67
2022/03/06 09:51:38;;;;;;;18.88;11.48;;;;;;;;;;5093470;28;20284;-68
2022/03/06 09:54:05;;;;;;;16.00;14.13;;;;;;;;;;5093681;28;20570;-67
2022/03/06 09:56:33;;;;;;;17.88;11.80;;;;;;;;;;5093581;28;20201;-67
2022/03/06 09:59:00;;;;;;;19.73;14.10;;;;;;;;;;5093543;28;20285;-67
2022/03/06 10:01:27;;;;;;;26.27;13.80;;;;;;;;;;5092595;28;20196;-67
2022/03/06 10:03:54;;;;;;;22.13;11.75;;;;;;;;;;5093444;28;20612;-67
2022/03/06 10:06:24;;;;;;;19.13;13.43;;;;;;;;;;5093433;28;20289;-67
2022/03/06 10:09:02;;;;;;;16.50;12.32;;;;;;;;;;5093537;28;20205;-68
2022/03/06 10:11:30;;;;;;;16.73;12.27;;;;;;;;;;5093247;28;20317;-68
2022/03/06 10:13:57;;;;;;;12.20;10.88;;;;;;;;;;5092967;28;20218;-68
2022/03/06 10:16:24;;;;;;;15.70;11.85;;;;;;;;;;5093518;28;20283;-67
2022/03/06 10:18:52;;;;;;;16.10;11.60;;;;;;;;;;5093122;28;20281;-68
2022/03/06 10:21:21;;;;;;;19.15;10.98;;;;;;;;;;5092852;28;20308;-67
2022/03/06 10:23:50;;;;;;;15.95;12.23;;;;;;;;;;5093177;28;20241;-67
2022/03/06 10:26:18;;;;;;;16.15;11.63;;;;;;;;;;5093177;28;20581;-66
2022/03/06 10:28:46;;;;;;;13.68;10.23;;;;;;;;;;5093631;28;20300;-67
2022/03/06 10:31:14;;;;;;;13.80;10.95;;;;;;;;;;5093318;28;20727;-67
2022/03/06 10:33:41;;;;;;;13.13;10.88;;;;;;;;;;5093248;28;20305;-68
2022/03/06 10:36:09;;;;;;;14.15;12.75;;;;;;;;;;5093232;28;20191;-69
2022/03/06 10:38:37;;;;;;;11.43;10.18;;;;;;;;;;5093708;28;20226;-69
2022/03/06 10:41:13;;;;;;;12.75;10.57;;;;;;;;;;5097280;28;20237;-68
2022/03/06 10:43:41;;;;;;;13.27;10.40;;;;;;;;;;5097472;28;20273;-68
2022/03/06 10:46:10;;;;;;;13.35;10.27;;;;;;;;;;5096694;28;20198;-68
2022/03/06 10:48:38;;;;;;;14.15;11.05;;;;;;;;;;5095702;28;20198;-68
2022/03/06 10:51:06;;;;;;;10.50;9.10;;;;;;;;;;5096412;28;20292;-67
2022/03/06 10:53:33;;;;;;;12.23;9.88;;;;;;;;;;5096738;28;20198;-67
2022/03/06 10:56:09;;;;;;;12.25;9.70;;;;;;;;;;5096510;28;20198;-67
2022/03/06 10:58:38;;;;;;;15.18;10.50;;;;;;;;;;5097768;28;20193;-68
2022/03/06 11:01:06;;;;;;;11.43;9.15;;;;;;;;;;5097078;28;20229;-67
2022/03/06 11:03:35;;;;;;;11.00;8.27;;;;;;;;;;5097198;28;20615;-67
2022/03/06 11:06:02;;;;;;;9.88;9.00;;;;;;;;;;5096397;28;20670;-67
2022/03/06 11:08:30;;;;;;;10.70;8.95;;;;;;;;;;5096080;28;20199;-67
2022/03/06 11:10:57;;;;;;;9.88;8.55;;;;;;;;;;5095781;28;20230;-68
2022/03/06 11:13:26;;;;;;;10.00;8.98;;;;;;;;;;5096716;28;20196;-67
2022/03/06 11:15:53;;;;;;;11.05;9.52;;;;;;;;;;5096712;28;20559;-67
2022/03/06 11:18:20;;;;;;;13.15;9.55;;;;;;;;;;5096148;28;20207;-67
2022/03/06 11:20:48;;;;;;;10.50;9.30;;;;;;;;;;5096596;28;20292;-66
2022/03/06 11:23:22;;;;;;;9.23;8.20;;;;;;;;;;5096194;28;20318;-68
2022/03/06 11:26:02;;;;;;;11.75;8.60;;;;;;;;;;5096386;28;20272;-67
2022/03/06 11:28:33;;;;;;;10.90;8.50;;;;;;;;;;5096014;28;20232;-68
2022/03/06 11:31:01;;;;;;;10.82;9.43;;;;;;;;;;5095788;28;20231;-68
2022/03/06 11:33:28;;;;;;;10.00;9.00;;;;;;;;;;5096843;28;20229;-68
2022/03/06 11:35:56;;;;;;;10.77;8.85;;;;;;;;;;5095879;28;20281;-67
2022/03/06 11:38:23;;;;;;;14.13;9.60;;;;;;;;;;5095860;28;20283;-67
2022/03/06 11:40:51;;;;;;;10.82;9.73;;;;;;;;;;5095827;28;20280;-69
2022/03/06 11:43:38;;;;;;;14.98;8.73;;;;;;;;;;5095784;28;20234;-68
2022/03/06 11:46:16;;;;;;;10.90;8.65;;;;;;;;;;5096385;28;20186;-68
2022/03/06 11:49:06;;;;;;;7.93;6.85;;;;;;;;;;5095245;28;20197;-69
2022/03/06 11:51:34;;;;;;;8.32;7.50;;;;;;;;;;5095652;28;20611;-67
2022/03/06 11:54:02;;;;;;;8.07;6.80;;;;;;;;;;5095812;28;20217;-69
2022/03/06 11:56:56;;;;;;;8.75;7.88;;;;;;;;;;5095478;28;20209;-68
2022/03/06 11:59:26;;;;;;;9.32;8.02;;;;;;;;;;5060053;28;20708;-67
2022/03/06 12:01:55;;;;;;;10.90;8.40;;;;;;;;;;5095261;28;20236;-67
2022/03/06 12:04:23;;;;;;;9.88;7.72;;;;;;;;;;5095427;28;20201;-68
2022/03/06 12:06:51;;;;;;;10.63;9.25;;;;;;;;;;5095289;28;20298;-67
2022/03/06 12:09:20;;;;;;;11.88;8.00;;;;;;;;;;5094714;28;20661;-67
2022/03/06 12:11:48;;;;;;;10.05;9.05;;;;;;;;;;5094899;28;20229;-67
2022/03/06 12:14:16;;;;;;;9.30;7.63;;;;;;;;;;5095370;28;20576;-68
2022/03/06 12:17:02;;;;;;;8.73;7.60;;;;;;;;;;5095237;28;20303;-67
2022/03/06 12:19:31;;;;;;;9.60;8.48;;;;;;;;;;5096207;28;20284;-69
2022/03/06 12:22:09;;;;;;;11.20;8.57;;;;;;;;;;5095439;28;20198;-69
2022/03/06 12:24:36;;;;;;;9.18;8.30;;;;;;;;;;5095786;28;20191;-70
2022/03/06 12:27:11;;;;;;;10.82;9.00;;;;;;;;;;5095375;28;20600;-67
2022/03/06 12:30:05;;;;;;;12.32;8.43;;;;;;;;;;5094540;28;20177;-68
2022/03/06 12:32:32;;;;;;;8.82;7.93;;;;;;;;;;5059068;28;20190;-69
2022/03/06 12:35:01;;;;;;;9.38;7.10;;;;;;;;;;5095168;28;20218;-72
2022/03/06 12:37:30;;;;;;;9.13;7.72;;;;;;;;;;5094730;28;20286;-69
2022/03/06 12:39:57;;;;;;;13.82;8.93;;;;;;;;;;5094582;28;20255;-69
2022/03/06 12:42:25;;;;;;;10.52;8.65;;;;;;;;;;5095153;28;20726;-69
2022/03/06 12:44:54;;;;;;;11.07;6.85;;;;;;;;;;5094961;28;20279;-70
2022/03/06 12:47:22;;;;;;;9.55;7.70;;;;;;;;;;5094618;28;20756;-70
2022/03/06 12:49:49;;;;;;;10.60;7.65;;;;;;;;;;5094639;28;20194;-69
2022/03/06 12:52:21;;;;;;;8.32;7.10;;;;;;;;;;5095423;28;20289;-71
2022/03/06 12:54:48;;;;;;;12.25;6.93;;;;;;;;;;5095469;28;20724;-69
2022/03/06 12:57:16;;;;;;;9.70;6.70;;;;;;;;;;5094881;28;20290;-69
2022/03/06 12:59:46;;;;;;;8.32;7.00;;;;;;;;;;5094877;28;20285;-70
2022/03/06 13:02:14;;;;;;;8.10;7.25;;;;;;;;;;5094002;28;20579;-70
2022/03/06 13:04:41;;;;;;;9.15;7.22;;;;;;;;;;5094221;28;20239;-69
2022/03/06 13:07:09;;;;;;;8.85;7.10;;;;;;;;;;5094643;28;20195;-70
2022/03/06 13:09:37;;;;;;;9.52;6.95;;;;;;;;;;5094306;28;20293;-69
2022/03/06 13:12:06;;;;;;;7.80;6.90;;;;;;;;;;5094502;28;20265;-70
2022/03/06 13:14:34;;;;;;;8.25;7.10;;;;;;;;;;5093910;28;20707;-69
2022/03/06 13:17:02;;;;;;;7.50;6.57;;;;;;;;;;5094390;28;20568;-69
2022/03/06 13:19:37;;;;;;;10.27;6.38;;;;;;;;;;5094236;28;20196;-70
2022/03/06 13:22:06;;;;;;;6.90;6.18;;;;;;;;;;5094469;28;20228;-70
2022/03/06 13:24:40;;;;;;;9.00;7.32;;;;;;;;;;5093853;28;20241;-70
2022/03/06 13:27:07;;;;;;;7.63;6.68;;;;;;;;;;5094409;28;20557;-69
2022/03/06 13:29:34;;;;;;;9.25;7.13;;;;;;;;;;5094208;28;20617;-69
2022/03/06 13:32:02;;;;;;;9.88;6.68;;;;;;;;;;5094150;28;20194;-70
2022/03/06 13:34:29;;;;;;;10.35;6.18;;;;;;;;;;5094006;28;20630;-69
2022/03/06 13:36:56;;;;;;;9.48;6.65;;;;;;;;;;5094503;28;20204;-71
2022/03/06 13:39:24;;;;;;;7.53;6.25;;;;;;;;;;5094001;28;20193;-70
2022/03/06 13:41:54;;;;;;;9.15;6.72;;;;;;;;;;5093994;28;20195;-69
2022/03/06 13:44:22;;;;;;;6.70;6.10;;;;;;;;;;5093498;28;20189;-69
2022/03/06 13:46:49;;;;;;;9.93;6.47;;;;;;;;;;5093861;28;20291;-69
2022/03/06 13:49:24;;;;;;;10.52;7.10;;;;;;;;;;5093804;28;20232;-70
2022/03/06 13:51:54;;;;;;;6.60;6.07;;;;;;;;;;5093578;28;20226;-68
2022/03/06 13:54:22;;;;;;;11.57;6.72;;;;;;;;;;5093679;28;20294;-69
2022/03/06 13:56:49;;;;;;;9.00;6.50;;;;;;;;;;5093476;28;20286;-69
2022/03/06 13:59:28;;;;;;;8.45;6.60;;;;;;;;;;5093571;28;20230;-69
2022/03/06 14:02:04;;;;;;;8.27;6.43;;;;;;;;;;5093434;28;20184;-69
2022/03/06 14:04:31;;;;;;;6.55;5.88;;;;;;;;;;5092770;28;20239;-69
2022/03/06 14:07:03;;;;;;;7.97;7.00;;;;;;;;;;5093021;28;20280;-69
2022/03/06 14:09:31;;;;;;;8.30;6.47;;;;;;;;;;5093380;28;20265;-68
2022/03/06 14:12:08;;;;;;;7.00;6.32;;;;;;;;;;5092776;28;20659;-68
2022/03/06 14:14:37;;;;;;;6.57;5.95;;;;;;;;;;5097214;28;20193;-68
2022/03/06 14:17:06;;;;;;;9.45;7.15;;;;;;;;;;5097318;28;20263;-69
2022/03/06 14:19:33;;;;;;;8.85;5.82;;;;;;;;;;5097225;28;20733;-69
2022/03/06 14:22:00;;;;;;;7.97;6.93;;;;;;;;;;5097391;28;20651;-68
2022/03/06 14:24:28;;;;;;;8.18;6.65;;;;;;;;;;5097307;28;20200;-68
2022/03/06 14:26:55;;;;;;;7.55;6.00;;;;;;;;;;5097734;28;20221;-68